Weather at Serukam

Public forecast

Using degrees Celsius for public forecast. Weather courtesy of forecast.io.

Closest aviation weather report (METAR) to Serukam

Closest report is Supadio Airport, 57.1 nm (105.7 km) S.

2024/05/28 15:30 (retrieved 25 minutes ago)

WIOO 281530Z AUTO 02002KT 9999 BKN180 OVC200 27/27 Q1009

Closest aviation forecast (TAF) to Serukam

Closest forecast is Kuching International Airport, 74.0 nm (137.0 km) NE.

2024/05/28 13:18 Ammendment (retrieved 3 hours ago)

TAF AMD WBGG 281355Z 2813/2912 VRB03KT 9999 FEW020 TEMPO 2814/2818 4000 TSRA FEW015CB SCT020